Portada
METAR-TAF:

METAR-TAF

Aeroports :

Aeroport Internacional de Chubu

Nagoya, Japó

latitud: 34-51-30N, longitud: 136-48-19E, altitud: 5 m

Observació

L'informe es va fer fa 50 minuts, a les 09:00 UTC
Vent 7 kt del Oest/Sud-Oest
Temperatura 11°C
Humitat 87%
Pressió 1013 hPa
Visibilitat 10 km o més
Escasses núvols a una alçada de 2500 ft
Cel ennuvolat a una alçada de 17000 ft

METAR: RJGG 190900Z 24007KT 9999 FEW025 BKN170 11/09 Q1013 BECMG 28005KT

Hora: 18:50 (09:50 UTC)

Pronòstic

L'informe es va fer fa 4 hores i 45 minuts, a les 05:05 UTC
Pronòstic vàlid del 19 a les 06 UTC al 20 a les 12 UTC
Vent 4 kt del Oest/Sud-Oest
Visibilitat 10 km o més
Escasses núvols a una alçada de 2000 ft
Evolucionant progressivament
l' 19 a les 07 UTC al 19 a les 09 UTC
Vent 12 kt del Nord/Nord-Oest
Evolucionant progressivament
l' 20 a les 00 UTC al 20 a les 03 UTC
Vent 10 kt del Sud

TAF: RJGG 190505Z 1906/2012 24004KT 9999 FEW020 BECMG 1907/1909 34012KT BECMG 2000/2003 18010KT

Observacions i pronòstics meteorològics de més de 4000 aeroports (METAR i TAF).

Les estacions disponibles són els punts grocs i vermells al mapa.

Posi el ratolí al punt desitjat per veure el nom de l'estació.

Feu clic per veure les observacions i els pronòstics meteorològics.

Per canviar el mapa: feu clic els botons verds amb una creu de color negre per apropar; al botó verd amb un guió per allunyar la imatge; o en les fletxes verdes per a mapes adjacents.


METAR-TAF: